Terminal Aerodrome Forecast
Issued by NWS Wakefield, VA

Home | Current Version | Previous Version | Text Only | Print | Product List | Glossary On
Versions: 1 2 3 4 5 6 7 8 9 10 11 12 13 14 15 16 17 18 19 20 21 22 23 24 25
000
FTUS41 KAKQ 281232 AAA
TAFORF
TAF AMD
KORF 281232Z 2813/2912 21007KT P6SM SCT025 BKN045
      TEMPO 2813/2815 BKN020
     FM281500 23008KT P6SM SCT020 BKN070
     FM281800 18006KT P6SM BKN050
     FM282100 17006KT P6SM SCT100
     FM290900 21008KT P6SM BKN100=

USA.gov is the U.S. government's official web portal to all federal, state and local government web resources and services.